sensor_id;sensor_type;location;lat;lon;timestamp;pressure;altitude;pressure_sealevel;temperature;humidity
41624;BME280;27319;50.306;18.926;2023-08-01T00:00:30;97442.63;;;18.31;79.76
41624;BME280;27319;50.306;18.926;2023-08-01T00:03:51;97436.38;;;18.30;79.53
41624;BME280;27319;50.306;18.926;2023-08-01T00:06:52;97442.63;;;18.19;78.94
41624;BME280;27319;50.306;18.926;2023-08-01T00:10:13;97436.47;;;18.24;79.65
41624;BME280;27319;50.306;18.926;2023-08-01T00:14:14;97438.13;;;18.13;78.43
41624;BME280;27319;50.306;18.926;2023-08-01T00:18:14;97434.34;;;18.26;79.09
41624;BME280;27319;50.306;18.926;2023-08-01T00:22:15;97428.56;;;18.22;78.70
41624;BME280;27319;50.306;18.926;2023-08-01T00:26:16;97428.47;;;18.17;79.59
41624;BME280;27319;50.306;18.926;2023-08-01T00:30:17;97422.38;;;17.92;80.33
41624;BME280;27319;50.306;18.926;2023-08-01T00:34:17;97418.50;;;18.00;80.02
41624;BME280;27319;50.306;18.926;2023-08-01T00:38:18;97414.28;;;18.04;79.59
41624;BME280;27319;50.306;18.926;2023-08-01T00:42:19;97406.34;;;18.02;78.97
41624;BME280;27319;50.306;18.926;2023-08-01T00:46:20;97399.59;;;17.93;79.33
41624;BME280;27319;50.306;18.926;2023-08-01T00:50:21;97394.06;;;18.00;78.97
41624;BME280;27319;50.306;18.926;2023-08-01T00:54:22;97390.66;;;17.93;79.66
41624;BME280;27319;50.306;18.926;2023-08-01T00:58:22;97378.59;;;17.89;78.60
41624;BME280;27319;50.306;18.926;2023-08-01T01:02:23;97366.34;;;17.98;79.70
41624;BME280;27319;50.306;18.926;2023-08-01T01:06:19;97360.78;;;17.93;79.87
41624;BME280;27319;50.306;18.926;2023-08-01T01:10:17;97351.09;;;17.85;79.83
41624;BME280;27319;50.306;18.926;2023-08-01T01:14:17;97347.91;;;18.00;78.55
41624;BME280;27319;50.306;18.926;2023-08-01T01:18:18;97339.41;;;17.96;77.79
41624;BME280;27319;50.306;18.926;2023-08-01T01:22:37;97325.63;;;17.98;79.37
41624;BME280;27319;50.306;18.926;2023-08-01T01:26:38;97304.94;;;17.97;79.33
41624;BME280;27319;50.306;18.926;2023-08-01T01:30:42;97309.56;;;17.96;78.07
41624;BME280;27319;50.306;18.926;2023-08-01T01:34:43;97301.53;;;18.01;77.62
41624;BME280;27319;50.306;18.926;2023-08-01T01:38:43;97297.38;;;17.99;77.90
41624;BME280;27319;50.306;18.926;2023-08-01T01:42:44;97286.06;;;17.90;77.89
41624;BME280;27319;50.306;18.926;2023-08-01T01:46:45;97292.06;;;18.04;76.67
41624;BME280;27319;50.306;18.926;2023-08-01T01:50:46;97273.06;;;17.92;77.35
41624;BME280;27319;50.306;18.926;2023-08-01T01:54:46;97263.97;;;17.98;77.07
41624;BME280;27319;50.306;18.926;2023-08-01T01:58:47;97267.97;;;17.96;77.20
41624;BME280;27319;50.306;18.926;2023-08-01T02:02:48;97274.13;;;17.91;76.75
41624;BME280;27319;50.306;18.926;2023-08-01T02:06:49;97269.31;;;17.82;77.35
41624;BME280;27319;50.306;18.926;2023-08-01T02:10:50;97262.47;;;17.79;77.04
41624;BME280;27319;50.306;18.926;2023-08-01T02:14:31;97260.81;;;17.67;76.73
41624;BME280;27319;50.306;18.926;2023-08-01T02:17:31;97261.41;;;17.69;77.17
41624;BME280;27319;50.306;18.926;2023-08-01T02:20:33;97258.56;;;17.75;77.23
41624;BME280;27319;50.306;18.926;2023-08-01T02:23:33;97254.09;;;17.81;77.89
41624;BME280;27319;50.306;18.926;2023-08-01T02:26:37;97253.47;;;17.79;77.90
41624;BME280;27319;50.306;18.926;2023-08-01T02:29:38;97249.81;;;17.62;78.79
41624;BME280;27319;50.306;18.926;2023-08-01T02:32:39;97245.59;;;17.54;79.21
41624;BME280;27319;50.306;18.926;2023-08-01T02:35:40;97242.06;;;17.54;78.76
41624;BME280;27319;50.306;18.926;2023-08-01T02:38:41;97239.47;;;17.59;79.10
41624;BME280;27319;50.306;18.926;2023-08-01T02:41:42;97233.47;;;17.57;79.10
41624;BME280;27319;50.306;18.926;2023-08-01T02:44:43;97231.19;;;17.54;78.94
41624;BME280;27319;50.306;18.926;2023-08-01T02:47:44;97229.06;;;17.56;78.47
41624;BME280;27319;50.306;18.926;2023-08-01T02:50:45;97227.19;;;17.56;78.97
41624;BME280;27319;50.306;18.926;2023-08-01T02:53:46;97222.94;;;17.49;79.35
41624;BME280;27319;50.306;18.926;2023-08-01T02:56:47;97220.34;;;17.54;78.26
41624;BME280;27319;50.306;18.926;2023-08-01T02:59:48;97212.44;;;17.64;78.82
41624;BME280;27319;50.306;18.926;2023-08-01T03:02:49;97215.16;;;17.64;78.38
41624;BME280;27319;50.306;18.926;2023-08-01T03:05:51;97213.50;;;17.63;77.33
41624;BME280;27319;50.306;18.926;2023-08-01T03:08:52;97212.56;;;17.57;78.27
41624;BME280;27319;50.306;18.926;2023-08-01T03:11:53;97211.84;;;17.73;77.63
41624;BME280;27319;50.306;18.926;2023-08-01T03:14:54;97209.13;;;17.62;76.05
41624;BME280;27319;50.306;18.926;2023-08-01T03:17:55;97207.72;;;17.71;75.95
41624;BME280;27319;50.306;18.926;2023-08-01T03:20:56;97183.41;;;17.76;75.44
41624;BME280;27319;50.306;18.926;2023-08-01T03:23:57;97188.50;;;17.72;75.67
41624;BME280;27319;50.306;18.926;2023-08-01T03:26:58;97182.56;;;17.75;76.40
41624;BME280;27319;50.306;18.926;2023-08-01T03:29:59;97180.69;;;17.76;76.45
41624;BME280;27319;50.306;18.926;2023-08-01T03:33:01;97176.34;;;17.75;76.09
41624;BME280;27319;50.306;18.926;2023-08-01T03:36:03;97177.47;;;17.79;75.42
41624;BME280;27319;50.306;18.926;2023-08-01T03:39:07;97188.44;;;17.84;74.19
41624;BME280;27319;50.306;18.926;2023-08-01T03:42:10;97176.06;;;17.88;75.16
41624;BME280;27319;50.306;18.926;2023-08-01T03:45:11;97176.63;;;17.90;74.84
41624;BME280;27319;50.306;18.926;2023-08-01T03:48:12;97187.38;;;17.96;74.72
41624;BME280;27319;50.306;18.926;2023-08-01T03:51:13;97186.78;;;17.94;75.02
41624;BME280;27319;50.306;18.926;2023-08-01T03:54:15;97183.13;;;18.00;75.04
41624;BME280;27319;50.306;18.926;2023-08-01T03:57:16;97179.56;;;18.00;74.42
41624;BME280;27319;50.306;18.926;2023-08-01T04:00:17;97180.88;;;17.97;74.78
41624;BME280;27319;50.306;18.926;2023-08-01T04:03:19;97176.34;;;18.03;74.81
41624;BME280;27319;50.306;18.926;2023-08-01T04:06:20;97171.19;;;18.01;73.88
41624;BME280;27319;50.306;18.926;2023-08-01T04:09:21;97179.91;;;18.03;74.63
41624;BME280;27319;50.306;18.926;2023-08-01T04:12:22;97180.75;;;18.04;74.70
41624;BME280;27319;50.306;18.926;2023-08-01T04:15:23;97182.38;;;18.05;73.93
41624;BME280;27319;50.306;18.926;2023-08-01T04:18:43;97181.91;;;18.08;75.18
41624;BME280;27319;50.306;18.926;2023-08-01T04:22:44;97176.81;;;18.11;75.05
41624;BME280;27319;50.306;18.926;2023-08-01T04:26:45;97175.13;;;18.22;74.71
41624;BME280;27319;50.306;18.926;2023-08-01T04:30:49;97180.66;;;18.27;74.93
41624;BME280;27319;50.306;18.926;2023-08-01T04:34:49;97170.38;;;18.40;75.74
41624;BME280;27319;50.306;18.926;2023-08-01T04:38:50;97174.09;;;18.51;75.30
41624;BME280;27319;50.306;18.926;2023-08-01T04:42:51;97169.44;;;18.63;74.12
41624;BME280;27319;50.306;18.926;2023-08-01T04:46:52;97169.09;;;18.76;73.51
41624;BME280;27319;50.306;18.926;2023-08-01T04:50:52;97180.16;;;18.86;73.42
41624;BME280;27319;50.306;18.926;2023-08-01T04:54:53;97169.38;;;18.91;73.66
41624;BME280;27319;50.306;18.926;2023-08-01T04:58:54;97177.03;;;18.94;74.71
41624;BME280;27319;50.306;18.926;2023-08-01T05:02:55;97169.94;;;18.93;74.69
41624;BME280;27319;50.306;18.926;2023-08-01T05:06:56;97171.50;;;18.89;75.31
41624;BME280;27319;50.306;18.926;2023-08-01T05:10:57;97167.06;;;18.83;75.17
41624;BME280;27319;50.306;18.926;2023-08-01T05:14:57;97167.88;;;18.83;75.49
41624;BME280;27319;50.306;18.926;2023-08-01T05:18:58;97162.38;;;18.78;77.30
41624;BME280;27319;50.306;18.926;2023-08-01T05:22:59;97162.69;;;18.82;78.12
41624;BME280;27319;50.306;18.926;2023-08-01T05:27:00;97165.50;;;18.87;76.31
41624;BME280;27319;50.306;18.926;2023-08-01T05:31:01;97172.09;;;18.91;78.57
41624;BME280;27319;50.306;18.926;2023-08-01T05:35:02;97163.53;;;18.99;76.04
41624;BME280;27319;50.306;18.926;2023-08-01T05:39:03;97163.69;;;19.09;77.00
41624;BME280;27319;50.306;18.926;2023-08-01T05:43:03;97171.56;;;19.22;75.41
41624;BME280;27319;50.306;18.926;2023-08-01T05:47:04;97172.03;;;19.35;76.36
41624;BME280;27319;50.306;18.926;2023-08-01T05:51:05;97168.72;;;19.50;75.11
41624;BME280;27319;50.306;18.926;2023-08-01T05:55:05;97180.53;;;19.55;75.15
41624;BME280;27319;50.306;18.926;2023-08-01T05:59:06;97174.41;;;19.65;76.57
41624;BME280;27319;50.306;18.926;2023-08-01T06:03:07;97180.09;;;19.63;77.92
41624;BME280;27319;50.306;18.926;2023-08-01T06:07:08;97178.59;;;19.56;77.49
41624;BME280;27319;50.306;18.926;2023-08-01T06:11:08;97165.69;;;19.46;78.62
41624;BME280;27319;50.306;18.926;2023-08-01T06:15:09;97155.28;;;19.43;79.21
41624;BME280;27319;50.306;18.926;2023-08-01T06:19:10;97155.78;;;19.40;79.51
41624;BME280;27319;50.306;18.926;2023-08-01T06:23:11;97148.28;;;19.47;79.31
41624;BME280;27319;50.306;18.926;2023-08-01T06:27:12;97142.06;;;19.52;80.50
41624;BME280;27319;50.306;18.926;2023-08-01T06:31:13;97121.44;;;19.56;81.05
41624;BME280;27319;50.306;18.926;2023-08-01T06:35:14;97110.78;;;19.71;79.06
41624;BME280;27319;50.306;18.926;2023-08-01T06:39:14;97129.59;;;19.94;78.08
41624;BME280;27319;50.306;18.926;2023-08-01T06:43:15;97119.25;;;20.17;80.26
41624;BME280;27319;50.306;18.926;2023-08-01T06:47:16;97131.34;;;20.26;78.68
41624;BME280;27319;50.306;18.926;2023-08-01T06:50:57;97123.03;;;20.38;78.49
41624;BME280;27319;50.306;18.926;2023-08-01T06:53:58;97130.81;;;20.51;77.97
41624;BME280;27319;50.306;18.926;2023-08-01T06:56:59;97137.69;;;20.58;77.52
41624;BME280;27319;50.306;18.926;2023-08-01T07:00:01;97137.47;;;20.65;76.30
41624;BME280;27319;50.306;18.926;2023-08-01T07:03:22;97137.00;;;20.73;75.34
41624;BME280;27319;50.306;18.926;2023-08-01T07:07:23;97132.94;;;20.75;76.29
41624;BME280;27319;50.306;18.926;2023-08-01T07:11:23;97131.69;;;20.88;76.20
41624;BME280;27319;50.306;18.926;2023-08-01T07:15:24;97128.13;;;21.14;75.03
41624;BME280;27319;50.306;18.926;2023-08-01T07:19:25;97127.22;;;21.40;73.75
41624;BME280;27319;50.306;18.926;2023-08-01T07:23:26;97103.94;;;21.69;73.65
41624;BME280;27319;50.306;18.926;2023-08-01T07:27:26;97105.44;;;21.91;72.56
41624;BME280;27319;50.306;18.926;2023-08-01T07:31:27;97110.56;;;21.88;72.28
41624;BME280;27319;50.306;18.926;2023-08-01T07:35:28;97119.91;;;21.92;72.51
41624;BME280;27319;50.306;18.926;2023-08-01T07:39:29;97123.19;;;21.99;74.89
41624;BME280;27319;50.306;18.926;2023-08-01T07:43:30;97116.00;;;21.73;74.58
41624;BME280;27319;50.306;18.926;2023-08-01T07:47:31;97119.56;;;21.83;74.24
41624;BME280;27319;50.306;18.926;2023-08-01T07:51:31;97119.81;;;21.72;76.10
41624;BME280;27319;50.306;18.926;2023-08-01T07:55:33;97127.88;;;21.57;77.92
41624;BME280;27319;50.306;18.926;2023-08-01T07:59:33;97121.25;;;21.48;79.51
41624;BME280;27319;50.306;18.926;2023-08-01T08:03:34;97128.72;;;21.21;79.27
41624;BME280;27319;50.306;18.926;2023-08-01T08:07:36;97132.81;;;21.18;82.92
41624;BME280;27319;50.306;18.926;2023-08-01T08:11:36;97121.66;;;21.25;82.21
41624;BME280;27319;50.306;18.926;2023-08-01T08:15:39;97118.84;;;21.51;85.38
41624;BME280;27319;50.306;18.926;2023-08-01T08:19:22;97118.13;;;21.71;83.14
41624;BME280;27319;50.306;18.926;2023-08-01T08:22:45;97112.66;;;21.66;81.25
41624;BME280;27319;50.306;18.926;2023-08-01T08:26:46;97107.19;;;21.66;82.12
41624;BME280;27319;50.306;18.926;2023-08-01T08:30:47;97105.50;;;21.65;82.34
41624;BME280;27319;50.306;18.926;2023-08-01T08:34:48;97099.41;;;21.48;82.71
41624;BME280;27319;50.306;18.926;2023-08-01T08:38:48;97102.00;;;21.23;80.92
41624;BME280;27319;50.306;18.926;2023-08-01T08:42:49;97103.06;;;21.22;85.37
41624;BME280;27319;50.306;18.926;2023-08-01T08:46:53;97107.16;;;21.19;86.14
41624;BME280;27319;50.306;18.926;2023-08-01T08:50:50;97099.25;;;21.23;90.24
41624;BME280;27319;50.306;18.926;2023-08-01T08:54:51;97089.41;;;21.17;86.34
41624;BME280;27319;50.306;18.926;2023-08-01T08:58:52;97093.00;;;21.27;86.56
41624;BME280;27319;50.306;18.926;2023-08-01T09:02:52;97091.22;;;21.43;88.30
41624;BME280;27319;50.306;18.926;2023-08-01T09:07:09;97091.16;;;21.33;86.66
41624;BME280;27319;50.306;18.926;2023-08-01T09:11:09;97087.91;;;21.41;89.37
41624;BME280;27319;50.306;18.926;2023-08-01T09:15:09;97085.69;;;21.33;91.13
41624;BME280;27319;50.306;18.926;2023-08-01T09:19:10;97071.16;;;21.22;89.33
41624;BME280;27319;50.306;18.926;2023-08-01T09:23:11;97065.28;;;21.04;97.61
41624;BME280;27319;50.306;18.926;2023-08-01T09:26:51;97062.00;;;21.02;96.34
41624;BME280;27319;50.306;18.926;2023-08-01T09:29:53;97056.66;;;21.17;96.09
41624;BME280;27319;50.306;18.926;2023-08-01T09:33:13;97057.44;;;21.12;93.82
41624;BME280;27319;50.306;18.926;2023-08-01T09:37:17;97050.34;;;21.16;96.09
41624;BME280;27319;50.306;18.926;2023-08-01T09:41:18;97046.81;;;21.16;97.55
41624;BME280;27319;50.306;18.926;2023-08-01T09:45:19;97047.41;;;21.23;93.93
41624;BME280;27319;50.306;18.926;2023-08-01T09:49:26;97041.75;;;21.34;96.53
41624;BME280;27319;50.306;18.926;2023-08-01T09:53:27;97026.44;;;21.33;95.91
41624;BME280;27319;50.306;18.926;2023-08-01T09:57:33;97029.16;;;21.33;97.79
41624;BME280;27319;50.306;18.926;2023-08-01T10:01:34;97013.34;;;21.30;93.56
41624;BME280;27319;50.306;18.926;2023-08-01T10:05:35;97012.47;;;21.20;94.80
41624;BME280;27319;50.306;18.926;2023-08-01T10:09:36;97016.03;;;21.25;92.02
41624;BME280;27319;50.306;18.926;2023-08-01T10:13:36;97013.06;;;21.27;94.59
41624;BME280;27319;50.306;18.926;2023-08-01T10:17:37;97002.03;;;21.12;92.84
41624;BME280;27319;50.306;18.926;2023-08-01T10:21:38;97003.91;;;21.01;95.60
41624;BME280;27319;50.306;18.926;2023-08-01T10:25:39;97010.63;;;20.89;93.92
41624;BME280;27319;50.306;18.926;2023-08-01T10:29:40;97007.38;;;20.92;96.22
41624;BME280;27319;50.306;18.926;2023-08-01T10:33:41;97010.50;;;20.79;94.09
41624;BME280;27319;50.306;18.926;2023-08-01T10:37:44;97009.81;;;20.88;93.36
41624;BME280;27319;50.306;18.926;2023-08-01T10:41:28;97007.69;;;20.64;91.35
41624;BME280;27319;50.306;18.926;2023-08-01T10:45:28;97012.25;;;20.58;90.80
41624;BME280;27319;50.306;18.926;2023-08-01T10:49:33;97015.56;;;20.29;89.76
41624;BME280;27319;50.306;18.926;2023-08-01T10:53:38;97018.81;;;20.26;91.73
41624;BME280;27319;50.306;18.926;2023-08-01T10:57:39;97024.97;;;20.16;92.74
41624;BME280;27319;50.306;18.926;2023-08-01T11:01:47;97034.69;;;20.34;93.38
41624;BME280;27319;50.306;18.926;2023-08-01T11:05:56;97027.16;;;20.14;95.21
41624;BME280;27319;50.306;18.926;2023-08-01T11:09:47;97033.34;;;20.10;98.16
41624;BME280;27319;50.306;18.926;2023-08-01T11:13:54;97031.72;;;19.87;96.81
41624;BME280;27319;50.306;18.926;2023-08-01T11:17:57;97035.97;;;20.00;96.96
41624;BME280;27319;50.306;18.926;2023-08-01T11:21:59;97030.50;;;19.73;97.11
41624;BME280;27319;50.306;18.926;2023-08-01T11:25:59;97032.88;;;19.48;96.54
41624;BME280;27319;50.306;18.926;2023-08-01T11:29:59;97018.63;;;19.63;97.52
41624;BME280;27319;50.306;18.926;2023-08-01T11:34:00;97017.63;;;19.47;100.00
41624;BME280;27319;50.306;18.926;2023-08-01T11:38:01;97016.00;;;19.25;100.00
41624;BME280;27319;50.306;18.926;2023-08-01T11:42:01;97021.13;;;19.43;99.21
41624;BME280;27319;50.306;18.926;2023-08-01T11:46:08;97022.31;;;19.52;98.41
41624;BME280;27319;50.306;18.926;2023-08-01T11:50:09;97018.19;;;19.28;100.00
41624;BME280;27319;50.306;18.926;2023-08-01T11:54:21;97008.53;;;19.37;100.00
41624;BME280;27319;50.306;18.926;2023-08-01T11:58:32;97004.22;;;19.41;100.00
41624;BME280;27319;50.306;18.926;2023-08-01T12:02:32;97009.59;;;19.57;99.53
41624;BME280;27319;50.306;18.926;2023-08-01T12:06:33;97008.72;;;19.73;100.00
41624;BME280;27319;50.306;18.926;2023-08-01T12:10:37;96999.22;;;19.76;100.00
41624;BME280;27319;50.306;18.926;2023-08-01T12:14:40;96995.41;;;19.77;100.00
41624;BME280;27319;50.306;18.926;2023-08-01T12:18:43;97001.28;;;19.69;100.00
41624;BME280;27319;50.306;18.926;2023-08-01T12:22:44;96991.13;;;19.86;100.00
41624;BME280;27319;50.306;18.926;2023-08-01T12:26:45;96989.72;;;19.78;100.00
41624;BME280;27319;50.306;18.926;2023-08-01T12:30:45;96982.59;;;19.77;100.00
41624;BME280;27319;50.306;18.926;2023-08-01T12:34:46;96985.25;;;19.72;100.00
41624;BME280;27319;50.306;18.926;2023-08-01T12:38:47;96985.97;;;19.63;100.00
41624;BME280;27319;50.306;18.926;2023-08-01T12:42:48;96981.50;;;19.52;100.00
41624;BME280;27319;50.306;18.926;2023-08-01T12:46:48;96985.97;;;19.63;100.00
41624;BME280;27319;50.306;18.926;2023-08-01T12:50:49;97004.53;;;19.66;100.00
41624;BME280;27319;50.306;18.926;2023-08-01T12:54:50;97004.38;;;19.77;100.00
41624;BME280;27319;50.306;18.926;2023-08-01T12:58:50;97005.56;;;19.60;100.00
41624;BME280;27319;50.306;18.926;2023-08-01T13:02:51;97015.38;;;19.39;100.00
41624;BME280;27319;50.306;18.926;2023-08-01T13:06:52;97015.09;;;19.41;100.00
41624;BME280;27319;50.306;18.926;2023-08-01T13:10:52;97011.81;;;19.39;100.00
41624;BME280;27319;50.306;18.926;2023-08-01T13:14:53;97002.41;;;19.08;100.00
41624;BME280;27319;50.306;18.926;2023-08-01T13:18:54;96995.06;;;19.09;100.00
41624;BME280;27319;50.306;18.926;2023-08-01T13:22:54;96987.19;;;19.29;100.00
41624;BME280;27319;50.306;18.926;2023-08-01T13:26:55;96984.06;;;19.20;100.00
41624;BME280;27319;50.306;18.926;2023-08-01T13:30:56;96979.94;;;19.18;100.00
41624;BME280;27319;50.306;18.926;2023-08-01T13:34:57;96980.47;;;19.15;100.00
41624;BME280;27319;50.306;18.926;2023-08-01T13:38:38;96966.09;;;18.98;100.00
41624;BME280;27319;50.306;18.926;2023-08-01T13:41:39;96953.19;;;19.10;100.00
41624;BME280;27319;50.306;18.926;2023-08-01T13:44:41;96952.38;;;19.09;100.00
41624;BME280;27319;50.306;18.926;2023-08-01T13:48:02;96959.78;;;19.14;100.00
41624;BME280;27319;50.306;18.926;2023-08-01T13:52:03;96959.72;;;19.09;100.00
41624;BME280;27319;50.306;18.926;2023-08-01T13:56:04;96937.97;;;19.09;100.00
41624;BME280;27319;50.306;18.926;2023-08-01T14:00:05;96937.00;;;19.20;100.00
41624;BME280;27319;50.306;18.926;2023-08-01T14:04:06;96925.53;;;19.18;100.00
41624;BME280;27319;50.306;18.926;2023-08-01T14:08:06;96930.41;;;19.32;100.00
41624;BME280;27319;50.306;18.926;2023-08-01T14:12:07;96932.84;;;19.34;100.00
41624;BME280;27319;50.306;18.926;2023-08-01T14:16:08;96935.19;;;19.25;100.00
41624;BME280;27319;50.306;18.926;2023-08-01T14:20:09;96930.59;;;19.26;100.00
41624;BME280;27319;50.306;18.926;2023-08-01T14:24:10;96935.47;;;19.24;100.00
41624;BME280;27319;50.306;18.926;2023-08-01T14:28:11;96930.41;;;19.32;100.00
41624;BME280;27319;50.306;18.926;2023-08-01T14:32:12;96931.44;;;19.10;100.00
41624;BME280;27319;50.306;18.926;2023-08-01T14:36:13;96926.13;;;19.20;100.00
41624;BME280;27319;50.306;18.926;2023-08-01T14:39:54;96933.88;;;19.28;100.00
41624;BME280;27319;50.306;18.926;2023-08-01T14:42:55;96945.94;;;19.37;100.00
41624;BME280;27319;50.306;18.926;2023-08-01T14:45:56;96929.09;;;19.18;100.00
41624;BME280;27319;50.306;18.926;2023-08-01T14:48:57;96932.38;;;19.20;100.00
41624;BME280;27319;50.306;18.926;2023-08-01T14:52:18;96939.34;;;19.11;100.00
41624;BME280;27319;50.306;18.926;2023-08-01T14:56:19;96952.41;;;18.93;100.00
41624;BME280;27319;50.306;18.926;2023-08-01T15:00:19;96946.84;;;18.83;100.00
41624;BME280;27319;50.306;18.926;2023-08-01T15:04:20;96938.28;;;18.74;100.00
41624;BME280;27319;50.306;18.926;2023-08-01T15:08:21;96959.22;;;18.74;100.00
41624;BME280;27319;50.306;18.926;2023-08-01T15:12:22;96959.78;;;18.76;100.00
41624;BME280;27319;50.306;18.926;2023-08-01T15:16:23;96957.44;;;18.63;100.00
41624;BME280;27319;50.306;18.926;2023-08-01T15:20:24;96961.91;;;18.52;100.00
41624;BME280;27319;50.306;18.926;2023-08-01T15:24:25;96961.97;;;18.57;100.00
41624;BME280;27319;50.306;18.926;2023-08-01T15:28:26;96970.63;;;18.54;100.00
41624;BME280;27319;50.306;18.926;2023-08-01T15:32:27;96966.66;;;18.62;100.00
41624;BME280;27319;50.306;18.926;2023-08-01T15:36:28;96967.00;;;18.49;100.00
41624;BME280;27319;50.306;18.926;2023-08-01T15:40:29;96948.25;;;18.47;100.00
41624;BME280;27319;50.306;18.926;2023-08-01T15:44:29;96957.63;;;18.40;100.00
41624;BME280;27319;50.306;18.926;2023-08-01T15:48:31;96958.94;;;18.37;100.00
41624;BME280;27319;50.306;18.926;2023-08-01T15:52:31;96954.38;;;18.26;100.00
41624;BME280;27319;50.306;18.926;2023-08-01T15:56:32;96958.19;;;18.25;100.00
41624;BME280;27319;50.306;18.926;2023-08-01T16:00:32;96966.22;;;18.32;100.00
41624;BME280;27319;50.306;18.926;2023-08-01T16:04:33;96963.50;;;18.32;100.00
41624;BME280;27319;50.306;18.926;2023-08-01T16:08:34;96966.47;;;18.19;100.00
41624;BME280;27319;50.306;18.926;2023-08-01T16:12:35;96973.91;;;18.23;100.00
41624;BME280;27319;50.306;18.926;2023-08-01T16:16:35;96963.34;;;18.10;100.00
41624;BME280;27319;50.306;18.926;2023-08-01T16:20:36;96986.56;;;18.18;100.00
41624;BME280;27319;50.306;18.926;2023-08-01T16:24:37;96982.91;;;17.96;100.00
41624;BME280;27319;50.306;18.926;2023-08-01T16:28:38;96980.53;;;17.99;100.00
41624;BME280;27319;50.306;18.926;2023-08-01T16:32:39;96987.88;;;17.99;100.00
41624;BME280;27319;50.306;18.926;2023-08-01T16:36:40;96989.69;;;18.10;100.00
41624;BME280;27319;50.306;18.926;2023-08-01T16:40:41;96985.81;;;18.06;100.00
41624;BME280;27319;50.306;18.926;2023-08-01T16:44:41;96982.91;;;17.96;100.00
41624;BME280;27319;50.306;18.926;2023-08-01T16:48:42;96996.00;;;17.99;100.00
41624;BME280;27319;50.306;18.926;2023-08-01T16:52:43;96995.94;;;18.10;100.00
41624;BME280;27319;50.306;18.926;2023-08-01T16:56:44;97005.16;;;18.09;100.00
41624;BME280;27319;50.306;18.926;2023-08-01T17:00:45;97001.44;;;17.99;100.00
41624;BME280;27319;50.306;18.926;2023-08-01T17:04:46;97007.53;;;18.06;100.00
41624;BME280;27319;50.306;18.926;2023-08-01T17:08:27;97009.91;;;18.02;100.00
41624;BME280;27319;50.306;18.926;2023-08-01T17:11:27;97002.69;;;18.08;100.00
41624;BME280;27319;50.306;18.926;2023-08-01T17:14:29;97003.28;;;18.10;100.00
41624;BME280;27319;50.306;18.926;2023-08-01T17:17:30;97000.50;;;17.93;100.00
41624;BME280;27319;50.306;18.926;2023-08-01T17:20:31;97001.22;;;18.00;100.00
41624;BME280;27319;50.306;18.926;2023-08-01T17:23:56;96999.03;;;17.86;100.00
41624;BME280;27319;50.306;18.926;2023-08-01T17:27:57;96994.91;;;17.83;100.00
41624;BME280;27319;50.306;18.926;2023-08-01T17:31:58;96985.03;;;17.77;100.00
41624;BME280;27319;50.306;18.926;2023-08-01T17:35:59;96996.22;;;17.81;100.00
41624;BME280;27319;50.306;18.926;2023-08-01T17:39:59;96987.38;;;17.74;100.00
41624;BME280;27319;50.306;18.926;2023-08-01T17:44:00;96992.59;;;17.75;100.00
41624;BME280;27319;50.306;18.926;2023-08-01T17:48:01;96979.75;;;17.71;100.00
41624;BME280;27319;50.306;18.926;2023-08-01T17:52:05;96978.88;;;17.54;100.00
41624;BME280;27319;50.306;18.926;2023-08-01T17:56:06;96987.41;;;17.46;100.00
41624;BME280;27319;50.306;18.926;2023-08-01T18:00:07;96987.94;;;17.59;100.00
41624;BME280;27319;50.306;18.926;2023-08-01T18:04:08;97002.81;;;17.57;100.00
41624;BME280;27319;50.306;18.926;2023-08-01T18:08:09;96999.03;;;17.58;100.00
41624;BME280;27319;50.306;18.926;2023-08-01T18:12:09;96993.50;;;17.53;100.00
41624;BME280;27319;50.306;18.926;2023-08-01T18:16:23;96996.47;;;17.51;100.00
41624;BME280;27319;50.306;18.926;2023-08-01T18:20:23;96998.94;;;17.53;100.00
41624;BME280;27319;50.306;18.926;2023-08-01T18:24:04;97003.19;;;17.49;100.00
41624;BME280;27319;50.306;18.926;2023-08-01T18:27:05;97011.91;;;17.51;100.00
41624;BME280;27319;50.306;18.926;2023-08-01T18:30:06;97012.16;;;17.49;100.00
41624;BME280;27319;50.306;18.926;2023-08-01T18:33:08;97006.59;;;17.56;100.00
41624;BME280;27319;50.306;18.926;2023-08-01T18:36:14;97016.88;;;17.54;100.00
41624;BME280;27319;50.306;18.926;2023-08-01T18:39:15;97017.81;;;17.48;100.00
41624;BME280;27319;50.306;18.926;2023-08-01T18:42:17;97024.78;;;17.44;100.00
41624;BME280;27319;50.306;18.926;2023-08-01T18:45:18;97026.53;;;17.50;100.00
41624;BME280;27319;50.306;18.926;2023-08-01T18:48:18;97005.69;;;17.39;100.00
41624;BME280;27319;50.306;18.926;2023-08-01T18:51:20;96990.34;;;17.33;100.00
41624;BME280;27319;50.306;18.926;2023-08-01T18:54:21;97003.09;;;17.32;100.00
41624;BME280;27319;50.306;18.926;2023-08-01T18:57:22;97003.44;;;17.36;100.00
41624;BME280;27319;50.306;18.926;2023-08-01T19:00:23;97009.00;;;17.41;100.00
41624;BME280;27319;50.306;18.926;2023-08-01T19:03:45;97025.84;;;17.43;100.00
41624;BME280;27319;50.306;18.926;2023-08-01T19:07:45;97031.63;;;17.46;100.00
41624;BME280;27319;50.306;18.926;2023-08-01T19:11:46;97040.34;;;17.37;100.00
41624;BME280;27319;50.306;18.926;2023-08-01T19:15:47;97050.50;;;17.41;100.00
41624;BME280;27319;50.306;18.926;2023-08-01T19:19:47;97046.50;;;17.44;100.00
41624;BME280;27319;50.306;18.926;2023-08-01T19:23:48;97061.47;;;17.35;100.00
41624;BME280;27319;50.306;18.926;2023-08-01T19:27:49;97054.63;;;17.32;100.00
41624;BME280;27319;50.306;18.926;2023-08-01T19:31:49;97043.91;;;17.26;100.00
41624;BME280;27319;50.306;18.926;2023-08-01T19:35:50;97047.69;;;17.25;100.00